Time;durP1;ratioP1;P1;durP2;ratioP2;P2;SDS_P1;SDS_P2;PMS_P1;PMS_P2;Temp;Humidity;BMP_temperature;BMP_pressure;BME280_temperature;BME280_humidity;BME280_pressure;Samples;Min_cycle;Max_cycle;Signal;HPM_P1;HPM_P2
2022/10/05 00:00:15;;;;;;;5.72;2.80;;;;;;;6.03;100.00;100563.50;1664539;86;21283;-60
2022/10/05 00:02:42;;;;;;;5.00;2.92;;;;;;;6.04;100.00;100563.83;1664537;86;21490;-58
2022/10/05 00:05:27;;;;;;;7.50;3.30;;;;;;;6.01;100.00;100564.11;1658078;86;20889;-58
2022/10/05 00:07:54;;;;;;;4.55;2.70;;;;;;;5.97;100.00;100562.78;1657098;86;21357;-58
2022/10/05 00:10:21;;;;;;;5.80;3.12;;;;;;;6.03;100.00;100566.09;1657187;86;21513;-59
2022/10/05 00:12:49;;;;;;;4.53;2.50;;;;;;;6.00;100.00;100570.74;1657226;86;22353;-58
2022/10/05 00:15:18;;;;;;;5.20;2.58;;;;;;;5.94;100.00;100561.77;1656914;86;20929;-66
2022/10/05 00:17:46;;;;;;;6.00;2.42;;;;;;;5.92;100.00;100562.41;1657135;86;21281;-59
2022/10/05 00:20:19;;;;;;;4.70;2.27;;;;;;;5.90;100.00;100561.70;1665486;84;21011;-58
2022/10/05 00:22:46;;;;;;;4.15;2.17;;;;;;;5.93;100.00;100567.91;1656976;84;22320;-61
2022/10/05 00:25:18;;;;;;;5.22;2.67;;;;;;;5.91;100.00;100568.98;1646549;86;22216;-60
2022/10/05 00:27:49;;;;;;;5.22;2.37;;;;;;;5.85;100.00;100569.09;1645486;86;21020;-59
2022/10/05 00:30:18;;;;;;;6.03;2.43;;;;;;;5.80;100.00;100567.42;1646541;86;21138;-60
2022/10/05 00:32:46;;;;;;;4.05;2.45;;;;;;;5.79;100.00;100563.19;1646070;84;21090;-64
2022/10/05 00:35:15;;;;;;;3.70;2.27;;;;;;;5.82;100.00;100564.20;1648325;86;21017;-62
2022/10/05 00:37:43;;;;;;;4.00;2.37;;;;;;;5.85;100.00;100565.20;1645829;86;21251;-59
2022/10/05 00:40:35;;;;;;;4.47;2.27;;;;;;;5.91;100.00;100568.52;1645435;86;21660;-62
2022/10/05 00:43:15;;;;;;;6.40;2.40;;;;;;;5.93;100.00;100571.80;1642325;86;21676;-64
2022/10/05 00:45:50;;;;;;;4.22;2.50;;;;;;;6.00;100.00;100571.55;1644981;86;21760;-61
2022/10/05 00:48:54;;;;;;;6.90;3.25;;;;;;;6.04;100.00;100578.55;1645194;86;20956;-59
2022/10/05 00:51:29;;;;;;;5.30;2.45;;;;;;;5.98;100.00;100579.92;1645019;86;21317;-58
2022/10/05 00:54:15;;;;;;;5.60;2.60;;;;;;;5.97;100.00;100582.19;1645272;86;20948;-58
2022/10/05 00:57:05;;;;;;;3.58;2.40;;;;;;;5.97;100.00;100584.77;1647295;86;21572;-58
2022/10/05 00:59:47;;;;;;;5.35;2.80;;;;;;;5.96;100.00;100584.45;1618954;86;20944;-59
2022/10/05 01:02:28;;;;;;;4.70;2.13;;;;;;;5.92;100.00;100584.41;1641447;86;21432;-59
2022/10/05 01:05:08;;;;;;;;;;;;;;;5.88;100.00;100589.98;1660171;85;21521;-59
2022/10/05 01:07:46;;;;;;;4.17;2.12;;;;;;;5.97;100.00;100592.53;1661825;84;20431;-60
2022/10/05 01:10:33;;;;;;;3.47;2.00;;;;;;;5.95;100.00;100594.47;1664199;85;21065;-58
2022/10/05 01:13:24;;;;;;;4.47;2.42;;;;;;;5.94;100.00;100600.58;1666566;84;20935;-66
2022/10/05 01:16:05;;;;;;;4.20;2.20;;;;;;;6.03;100.00;100595.84;1667120;85;21046;-58
2022/10/05 01:18:54;;;;;;;6.40;2.35;;;;;;;6.11;100.00;100595.61;1663707;85;27197;-58
2022/10/05 01:21:26;;;;;;;4.17;1.90;;;;;;;6.09;100.00;100596.55;1667084;85;21042;-58
2022/10/05 01:24:15;;;;;;;3.75;1.80;;;;;;;6.11;100.00;100591.73;1661498;84;21613;-62
2022/10/05 01:27:14;;;;;;;5.33;2.62;;;;;;;6.08;100.00;100592.33;1667274;85;21066;-58
2022/10/05 01:29:50;;;;;;;3.45;1.90;;;;;;;6.07;100.00;100597.67;1666141;85;21022;-60
2022/10/05 01:32:32;;;;;;;4.37;2.17;;;;;;;6.06;100.00;100600.73;1662716;85;21158;-58
2022/10/05 01:35:23;;;;;;;2.80;1.35;;;;;;;6.08;100.00;100596.22;1661633;85;21446;-58
2022/10/05 01:38:16;;;;;;;5.83;2.33;;;;;;;6.12;100.00;100596.74;1665289;85;21080;-59
2022/10/05 01:41:06;;;;;;;4.15;2.12;;;;;;;6.11;100.00;100593.83;1666560;85;21232;-58
2022/10/05 01:44:06;;;;;;;4.03;2.08;;;;;;;6.12;100.00;100597.23;1665967;85;21027;-58
2022/10/05 01:47:03;;;;;;;5.28;2.62;;;;;;;6.07;100.00;100584.25;1633476;87;21186;-59
2022/10/05 01:50:03;;;;;;;3.92;2.02;;;;;;;6.00;100.00;100587.56;1664408;84;21297;-59
2022/10/05 01:52:43;;;;;;;4.67;2.45;;;;;;;5.88;100.00;100590.80;1664457;84;21014;-59
2022/10/05 01:55:18;;;;;;;3.65;2.20;;;;;;;5.84;100.00;100595.92;1664340;85;21377;-59
2022/10/05 01:58:01;;;;;;;5.97;2.10;;;;;;;5.85;100.00;100601.42;1664151;85;20999;-59
2022/10/05 02:00:28;;;;;;;4.35;2.20;;;;;;;5.86;100.00;100608.22;1664560;85;22564;-58
2022/10/05 02:03:04;;;;;;;4.70;2.50;;;;;;;5.88;100.00;100611.49;1667322;85;20908;-59
2022/10/05 02:05:42;;;;;;;4.67;2.70;;;;;;;5.96;100.00;100612.09;1652117;84;21082;-57
2022/10/05 02:08:36;;;;;;;4.45;3.00;;;;;;;5.96;100.00;100609.52;1658073;86;21439;-58
2022/10/05 02:11:12;;;;;;;3.75;2.50;;;;;;;5.96;100.00;100606.44;1631838;87;20983;-58
2022/10/05 02:13:51;;;;;;;4.85;2.72;;;;;;;5.88;100.00;100614.08;1659362;84;20892;-59
2022/10/05 02:16:33;;;;;;;4.78;2.60;;;;;;;5.91;100.00;100600.86;1674648;85;21565;-58
2022/10/05 02:19:22;;;;;;;5.12;2.37;;;;;;;5.88;100.00;100607.61;1674532;85;21063;-67
2022/10/05 02:21:54;;;;;;;6.00;2.80;;;;;;;5.91;100.00;100610.37;1670412;85;21552;-58
2022/10/05 02:24:24;;;;;;;6.35;3.02;;;;;;;5.89;100.00;100617.48;1658809;86;20955;-57
2022/10/05 02:26:51;;;;;;;3.75;2.60;;;;;;;5.80;100.00;100617.39;1657920;86;21474;-59
2022/10/05 02:29:20;;;;;;;4.35;2.37;;;;;;;5.78;100.00;100628.34;1658561;86;21022;-58
2022/10/05 02:31:56;;;;;;;6.55;2.80;;;;;;;5.72;100.00;100632.80;1658570;86;21537;-58
2022/10/05 02:34:39;;;;;;;5.37;2.60;;;;;;;5.74;100.00;100634.76;1661643;86;21525;-58
2022/10/05 02:37:47;;;;;;;4.83;2.65;;;;;;;5.72;100.00;100637.14;1607788;88;21026;-58
2022/10/05 02:40:49;;;;;;;4.97;2.40;;;;;;;5.68;100.00;100634.50;1625714;88;22592;-58
2022/10/05 02:43:33;;;;;;;4.05;2.65;;;;;;;5.63;100.00;100638.81;1601051;89;21492;-67
2022/10/05 02:46:32;;;;;;;4.28;2.62;;;;;;;5.60;100.00;100642.97;1625777;88;21075;-58
2022/10/05 02:49:05;;;;;;;4.15;2.50;;;;;;;5.65;100.00;100651.14;1600444;89;21034;-58
2022/10/05 02:51:50;;;;;;;5.62;2.95;;;;;;;5.68;100.00;100663.77;1625957;87;21043;-58
2022/10/05 02:54:49;;;;;;;5.30;2.87;;;;;;;5.67;100.00;100662.62;1590746;89;22394;-59
2022/10/05 02:57:32;;;;;;;5.05;2.37;;;;;;;5.67;100.00;100662.62;1622683;87;21090;-58
2022/10/05 03:00:05;;;;;;;4.45;2.83;;;;;;;5.63;100.00;100659.50;1624151;88;20916;-60
2022/10/05 03:03:01;;;;;;;4.22;2.37;;;;;;;5.64;100.00;100666.78;1624528;88;21070;-59
2022/10/05 03:05:54;;;;;;;5.42;2.80;;;;;;;5.70;100.00;100676.58;1624213;88;20917;-63
2022/10/05 03:08:38;;;;;;;3.60;2.45;;;;;;;5.74;100.00;100683.91;1624433;88;21275;-58
2022/10/05 03:11:40;;;;;;;5.12;2.98;;;;;;;5.74;100.00;100690.85;1623855;88;21143;-65
2022/10/05 03:14:38;;;;;;;5.03;2.60;;;;;;;5.72;100.00;100695.34;1624462;86;21011;-58
2022/10/05 03:17:15;;;;;;;6.03;3.00;;;;;;;5.73;100.00;100703.45;1624430;88;21521;-58
2022/10/05 03:20:07;;;;;;;4.97;2.70;;;;;;;5.64;100.00;100712.84;1624421;87;21020;-58
2022/10/05 03:23:00;;;;;;;5.10;2.87;;;;;;;5.58;100.00;100712.94;1624512;88;21262;-58
2022/10/05 03:25:55;;;;;;;4.80;2.60;;;;;;;5.53;100.00;100719.02;1624018;88;20885;-63
2022/10/05 03:28:36;;;;;;;4.70;3.05;;;;;;;5.63;100.00;100722.05;1574318;91;21142;-58
2022/10/05 03:31:07;;;;;;;4.45;2.83;;;;;;;5.59;100.00;100714.56;1573766;91;20996;-61
2022/10/05 03:34:11;;;;;;;4.83;2.65;;;;;;;5.52;100.00;100722.53;1598392;88;21576;-59
2022/10/05 03:36:48;;;;;;;6.55;2.90;;;;;;;5.53;100.00;100728.52;1624574;88;21182;-58
2022/10/05 03:39:38;;;;;;;5.65;3.47;;;;;;;5.51;100.00;100732.55;1624299;88;21004;-59
2022/10/05 03:42:37;;;;;;;4.87;2.52;;;;;;;5.49;100.00;100740.09;1624392;87;21086;-59
2022/10/05 03:45:34;;;;;;;6.08;3.10;;;;;;;5.44;100.00;100751.34;1624654;88;20929;-68
2022/10/05 03:48:06;;;;;;;4.75;2.70;;;;;;;5.44;100.00;100746.98;1624942;88;20914;-58
2022/10/05 03:51:06;;;;;;;5.03;3.22;;;;;;;5.65;100.00;100754.59;1625299;88;21328;-58
2022/10/05 03:53:43;;;;;;;5.35;2.65;;;;;;;5.85;100.00;100755.36;1594212;89;25168;-58
2022/10/05 03:56:31;;;;;;;5.37;2.87;;;;;;;5.98;100.00;100767.53;1593776;90;21048;-58
2022/10/05 03:59:12;;;;;;;5.45;2.92;;;;;;;6.03;100.00;100767.94;1614419;88;21013;-58
2022/10/05 04:01:51;;;;;;;4.72;2.80;;;;;;;6.05;100.00;100766.02;1625412;88;20968;-58
2022/10/05 04:04:36;;;;;;;5.75;2.52;;;;;;;6.01;100.00;100762.56;1625011;88;21941;-60
2022/10/05 04:07:03;;;;;;;5.08;2.98;;;;;;;6.07;100.00;100764.11;1616585;86;20884;-59
2022/10/05 04:09:36;;;;;;;6.75;2.47;;;;;;;6.23;100.00;100760.92;1615510;88;21004;-68
2022/10/05 04:12:26;;;;;;;6.37;2.60;;;;;;;6.80;100.00;100759.48;1624106;87;20983;-58
2022/10/05 04:14:56;;;;;;;4.77;3.00;;;;;;;7.74;100.00;100751.21;1624978;88;21042;-59
2022/10/05 04:17:39;;;;;;;6.57;2.80;;;;;;;8.94;100.00;100743.75;1624975;87;21445;-63
2022/10/05 04:20:34;;;;;;;9.30;3.00;;;;;;;9.95;100.00;100743.39;1625785;88;21667;-58
2022/10/05 04:23:18;;;;;;;4.03;2.40;;;;;;;11.94;100.00;100741.83;1625381;88;21331;-67
2022/10/05 04:25:56;;;;;;;4.70;2.50;;;;;;;11.94;100.00;100741.83;1625794;87;21606;-58
2022/10/05 04:28:44;;;;;;;3.83;2.47;;;;;;;12.74;100.00;100740.98;1607552;88;21711;-58
2022/10/05 04:31:20;;;;;;;4.23;2.30;;;;;;;13.38;100.00;100740.21;1625635;88;21376;-58
2022/10/05 04:33:53;;;;;;;3.80;2.10;;;;;;;13.96;100.00;100738.68;1625625;88;21043;-59
2022/10/05 04:36:24;;;;;;;4.37;2.30;;;;;;;14.48;100.00;100733.38;1625480;88;21066;-61
2022/10/05 04:39:05;;;;;;;4.25;2.33;;;;;;;14.81;100.00;100730.84;1626161;88;21109;-59
2022/10/05 04:42:11;;;;;;;4.93;2.40;;;;;;;14.76;100.00;100724.09;1626051;88;20971;-59
2022/10/05 04:45:02;;;;;;;5.93;2.87;;;;;;;14.52;100.00;100724.13;1626077;88;21538;-58
2022/10/05 04:48:05;;;;;;;3.93;2.57;;;;;;;14.20;100.00;100734.25;1624917;88;21047;-58
2022/10/05 04:50:43;;;;;;;5.62;2.67;;;;;;;13.98;100.00;100722.24;1625978;87;21613;-58
2022/10/05 04:53:36;;;;;;;4.60;2.47;;;;;;;13.76;100.00;100715.80;1626022;88;21111;-59
2022/10/05 04:56:13;;;;;;;5.70;3.02;;;;;;;13.55;100.00;100719.77;1625926;87;20972;-58
2022/10/05 04:59:10;;;;;;;8.10;3.70;;;;;;;13.36;100.00;100723.86;1625954;88;21247;-58
2022/10/05 05:02:18;;;;;;;7.10;3.00;;;;;;;13.24;100.00;100725.38;1625950;88;20987;-58
2022/10/05 05:05:14;;;;;;;6.80;2.93;;;;;;;13.12;100.00;100735.02;1620769;87;21044;-58
2022/10/05 05:08:16;;;;;;;4.13;2.87;;;;;;;13.02;100.00;100736.33;1635535;87;21031;-58
2022/10/05 05:11:07;;;;;;;4.97;2.90;;;;;;;12.98;100.00;100742.43;1637680;87;21149;-58
2022/10/05 05:14:09;;;;;;;5.40;2.83;;;;;;;12.95;100.00;100736.75;1637698;86;21282;-58
2022/10/05 05:16:41;;;;;;;5.97;3.53;;;;;;;12.94;100.00;100738.57;1637368;86;21079;-58
2022/10/05 05:19:27;;;;;;;6.23;3.30;;;;;;;12.93;100.00;100730.92;1601879;87;20931;-58
2022/10/05 05:22:18;;;;;;;5.07;3.27;;;;;;;12.91;100.00;100733.20;1611152;87;21097;-58
2022/10/05 05:25:20;;;;;;;5.73;3.20;;;;;;;12.89;100.00;100733.91;1638002;87;21713;-66
2022/10/05 05:28:01;;;;;;;5.73;3.30;;;;;;;12.84;100.00;100736.28;1637828;86;21234;-59
2022/10/05 05:30:48;;;;;;;;;;;;;;;12.85;100.00;100743.13;1639694;87;20983;-58
2022/10/05 05:33:22;;;;;;;4.63;3.23;;;;;;;12.98;100.00;100740.31;1629377;86;20472;-58
2022/10/05 05:36:14;;;;;;;4.50;2.67;;;;;;;13.07;100.00;100744.45;1630413;87;21054;-58
2022/10/05 05:39:17;;;;;;;4.70;2.80;;;;;;;13.26;100.00;100747.77;1637580;87;21019;-58
2022/10/05 05:42:00;;;;;;;;;;;;;;;13.47;100.00;100736.95;1640303;87;21237;-58
2022/10/05 05:44:38;;;;;;;4.30;2.70;;;;;;;13.65;100.00;100743.02;1632162;87;20689;-67
2022/10/05 05:47:28;;;;;;;6.87;2.53;;;;;;;13.80;100.00;100744.53;1636251;87;21086;-59
2022/10/05 05:50:31;;;;;;;4.42;2.90;;;;;;;13.99;100.00;100739.61;1636401;86;21020;-60
2022/10/05 05:53:22;;;;;;;4.80;2.57;;;;;;;14.48;100.00;100745.98;1636358;87;21084;-60
2022/10/05 05:55:59;;;;;;;4.07;2.97;;;;;;;15.31;100.00;100747.89;1636711;87;21557;-58
2022/10/05 05:58:33;;;;;;;5.97;3.00;;;;;;;16.13;100.00;100753.64;1636522;87;21307;-59
2022/10/05 06:01:07;;;;;;;3.43;2.33;;;;;;;16.85;100.00;100743.02;1635504;86;20987;-58
2022/10/05 06:03:51;;;;;;;4.00;2.47;;;;;;;17.78;100.00;100744.95;1636156;87;21055;-59
2022/10/05 06:06:20;;;;;;;3.77;2.40;;;;;;;18.48;100.00;100746.66;1636349;87;21610;-59
2022/10/05 06:08:56;;;;;;;5.27;2.37;;;;;;;18.95;100.00;100752.16;1636142;87;21776;-59
2022/10/05 06:11:32;;;;;;;3.50;2.00;;;;;;;19.38;100.00;100753.19;1634701;87;21034;-58
2022/10/05 06:14:06;;;;;;;5.33;2.67;;;;;;;19.95;100.00;100750.50;1636362;87;21099;-59
2022/10/05 06:16:41;;;;;;;3.40;2.53;;;;;;;20.28;93.16;100755.94;1635672;87;21048;-70
2022/10/05 06:19:13;;;;;;;5.10;2.67;;;;;;;20.58;86.25;100758.41;1634158;87;21042;-58
2022/10/05 06:21:57;;;;;;;5.30;3.03;;;;;;;20.92;82.95;100763.77;1636346;87;21135;-59
2022/10/05 06:25:00;;;;;;;4.70;2.92;;;;;;;21.17;78.91;100756.74;1635931;87;21513;-59
2022/10/05 06:28:11;;;;;;;4.28;3.02;;;;;;;21.57;74.55;100763.23;1636374;87;20986;-60
2022/10/05 06:31:09;;;;;;;4.42;2.67;;;;;;;21.81;68.86;100767.80;1636385;87;21492;-58
2022/10/05 06:33:58;;;;;;;3.98;2.47;;;;;;;21.98;66.50;100764.33;1636132;86;21138;-59
2022/10/05 06:36:41;;;;;;;3.42;2.50;;;;;;;21.88;65.57;100774.27;1637688;87;21153;-69
2022/10/05 06:39:51;;;;;;;3.80;2.37;;;;;;;21.97;67.18;100771.98;1637837;87;21072;-58
2022/10/05 06:42:45;;;;;;;3.45;2.20;;;;;;;22.08;66.15;100771.86;1637747;87;21434;-58
2022/10/05 06:45:32;;;;;;;4.22;2.50;;;;;;;22.13;61.87;100780.97;1635981;87;20975;-69
2022/10/05 06:48:42;;;;;;;3.60;2.22;;;;;;;21.99;63.46;100793.80;1621068;87;21103;-58
2022/10/05 06:51:40;;;;;;;3.60;2.33;;;;;;;21.97;61.47;100787.41;1602907;87;21247;-58
2022/10/05 06:54:42;;;;;;;3.52;2.30;;;;;;;21.95;63.43;100791.35;1637003;86;21011;-58
2022/10/05 06:57:55;;;;;;;2.90;2.12;;;;;;;22.15;62.60;100782.87;1637677;87;21083;-58
2022/10/05 07:00:35;;;;;;;4.35;2.40;;;;;;;22.45;59.15;100780.56;1637701;87;21087;-58
2022/10/05 07:03:17;;;;;;;4.00;2.10;;;;;;;22.33;58.10;100783.89;1613501;87;21110;-59
2022/10/05 07:05:50;;;;;;;3.37;2.08;;;;;;;22.24;58.49;100781.41;1637757;87;21243;-58
2022/10/05 07:08:41;;;;;;;2.67;1.75;;;;;;;22.01;58.64;100780.56;1636904;87;21451;-59
2022/10/05 07:11:52;;;;;;;4.35;2.22;;;;;;;22.08;60.03;100775.05;1637898;87;20987;-58
2022/10/05 07:15:05;;;;;;;3.42;2.15;;;;;;;22.45;59.85;100771.27;1637298;86;21177;-58
2022/10/05 07:17:44;;;;;;;3.40;2.10;;;;;;;22.94;58.93;100768.59;1622948;88;20980;-59
2022/10/05 07:20:54;;;;;;;5.60;2.08;;;;;;;23.40;56.20;100768.95;1619857;88;21901;-60
2022/10/05 07:23:29;;;;;;;3.17;2.15;;;;;;;23.55;53.13;100761.07;1618168;88;21037;-58
2022/10/05 07:26:17;;;;;;;3.77;1.90;;;;;;;23.48;52.94;100771.13;1610668;88;21072;-58
2022/10/05 07:29:09;;;;;;;3.17;1.80;;;;;;;23.57;52.32;100772.01;1593787;90;21009;-58
2022/10/05 07:31:46;;;;;;;3.08;2.02;;;;;;;23.65;51.55;100770.19;1593299;90;21029;-58
2022/10/05 07:34:54;;;;;;;2.87;2.00;;;;;;;23.58;50.52;100768.28;1589621;90;21803;-58
2022/10/05 07:37:54;;;;;;;3.50;1.85;;;;;;;23.26;50.86;100771.77;1593739;90;21611;-58
2022/10/05 07:40:42;;;;;;;2.93;2.07;;;;;;;23.02;51.01;100773.98;1593887;89;21080;-58
2022/10/05 07:43:26;;;;;;;2.80;1.75;;;;;;;22.74;50.85;100770.52;1600522;88;20971;-63
2022/10/05 07:46:11;;;;;;;3.27;1.87;;;;;;;22.62;52.50;100778.38;1598069;87;21086;-58
2022/10/05 07:49:14;;;;;;;4.05;1.70;;;;;;;22.76;53.26;100782.21;1618865;87;21294;-59
2022/10/05 07:51:54;;;;;;;2.72;1.82;;;;;;;23.10;52.63;100785.48;1617048;88;21517;-58
2022/10/05 07:54:58;;;;;;;2.70;1.80;;;;;;;23.31;51.35;100778.48;1617818;88;20964;-64
2022/10/05 07:57:43;;;;;;;4.00;1.80;;;;;;;23.37;52.46;100789.41;1617954;88;20975;-58
2022/10/05 08:00:19;;;;;;;3.00;1.70;;;;;;;23.46;51.02;100797.21;1602499;88;21152;-58
2022/10/05 08:02:58;;;;;;;2.55;1.67;;;;;;;23.44;49.93;100794.52;1618045;88;21165;-58
2022/10/05 08:05:30;;;;;;;2.52;1.57;;;;;;;23.40;49.96;100792.90;1617472;88;21042;-62
2022/10/05 08:08:12;;;;;;;2.50;1.57;;;;;;;23.38;49.32;100790.23;1612290;88;22398;-58
2022/10/05 08:11:13;;;;;;;2.95;1.57;;;;;;;23.32;49.36;100793.37;1598701;87;21659;-58
2022/10/05 08:14:01;;;;;;;2.55;1.45;;;;;;;23.23;49.93;100793.58;1598503;89;21009;-58
2022/10/05 08:16:31;;;;;;;2.90;1.80;;;;;;;23.15;50.07;100791.39;1593846;89;21308;-58
2022/10/05 08:19:21;;;;;;;2.90;1.98;;;;;;;23.19;50.12;100789.83;1625976;88;21022;-58
2022/10/05 08:21:53;;;;;;;3.42;1.77;;;;;;;23.29;50.72;100787.23;1601102;89;20880;-58
2022/10/05 08:24:42;;;;;;;4.80;2.35;;;;;;;23.56;49.23;100792.47;1625846;88;21472;-58
2022/10/05 08:27:29;;;;;;;2.80;1.40;;;;;;;23.61;50.05;100789.86;1630133;87;21621;-58
2022/10/05 08:30:00;;;;;;;2.40;1.65;;;;;;;23.88;49.56;100789.78;1691519;84;21210;-57
2022/10/05 08:33:05;;;;;;;2.98;1.87;;;;;;;24.21;49.97;100788.61;1691665;84;21132;-58
2022/10/05 08:35:42;;;;;;;3.10;1.70;;;;;;;24.58;48.81;100785.00;1664983;84;21496;-58
2022/10/05 08:38:17;;;;;;;2.90;2.00;;;;;;;24.86;48.36;100786.93;1653658;84;21561;-58
2022/10/05 08:41:08;;;;;;;3.17;1.50;;;;;;;24.73;46.94;100792.23;1631690;87;21340;-57
2022/10/05 08:43:47;;;;;;;3.60;1.85;;;;;;;24.21;46.31;100798.46;1603092;87;21329;-58
2022/10/05 08:46:54;;;;;;;2.60;1.70;;;;;;;23.47;47.36;100804.66;1600488;87;22578;-58
2022/10/05 08:49:44;;;;;;;3.27;1.40;;;;;;;22.84;47.62;100805.68;1631320;87;21039;-58
2022/10/05 08:52:23;;;;;;;2.83;1.52;;;;;;;22.07;49.93;100807.44;1631893;86;21097;-57
2022/10/05 08:55:25;;;;;;;2.40;1.30;;;;;;;21.79;51.35;100820.86;1631264;87;21446;-58
2022/10/05 08:58:20;;;;;;;2.40;1.60;;;;;;;21.59;52.71;100828.80;1634390;85;21878;-62
2022/10/05 09:01:05;;;;;;;3.70;1.80;;;;;;;21.38;53.86;100828.98;1646638;86;21035;-58
2022/10/05 09:03:57;;;;;;;4.50;1.97;;;;;;;21.13;54.44;100828.52;1657350;86;21030;-67
2022/10/05 09:07:09;;;;;;;2.37;1.70;;;;;;;20.76;55.75;100830.77;1658568;86;20916;-60
2022/10/05 09:09:39;;;;;;;;;;;;;;;20.67;57.88;100826.89;1661131;86;21014;-58
2022/10/05 09:12:36;;;;;;;3.17;2.00;;;;;;;20.88;58.69;100835.52;1658858;86;21275;-58
2022/10/05 09:15:27;;;;;;;3.27;2.10;;;;;;;21.10;58.75;100831.15;1669003;84;21018;-57
2022/10/05 09:18:27;;;;;;;2.77;1.70;;;;;;;21.22;58.47;100832.94;1658355;86;21030;-62
2022/10/05 09:21:08;;;;;;;2.73;1.80;;;;;;;21.24;57.94;100828.19;1662452;86;21042;-58
2022/10/05 09:23:42;;;;;;;2.55;1.55;;;;;;;21.08;57.88;100841.17;1632889;87;21030;-58
2022/10/05 09:26:52;;;;;;;3.60;1.77;;;;;;;20.81;58.94;100834.85;1660295;86;21221;-58
2022/10/05 09:30:06;;;;;;;3.37;1.70;;;;;;;20.47;60.61;100847.13;1658497;86;20967;-58
2022/10/05 09:33:17;;;;;;;3.57;1.53;;;;;;;20.16;65.00;100845.17;1658721;86;20987;-58
2022/10/05 09:36:16;;;;;;;3.43;2.20;;;;;;;20.03;66.69;100844.08;1658083;86;20991;-57
2022/10/05 09:39:23;;;;;;;3.63;2.00;;;;;;;19.97;68.72;100841.84;1681497;84;21022;-58
2022/10/05 09:42:04;;;;;;;3.70;1.87;;;;;;;19.94;68.20;100839.66;1691508;84;21853;-58
2022/10/05 09:45:20;;;;;;;3.60;1.70;;;;;;;19.81;70.25;100843.84;1691127;84;21097;-58
2022/10/05 09:48:11;;;;;;;2.80;1.77;;;;;;;19.76;72.26;100841.09;1691320;84;21415;-57
2022/10/05 09:51:14;;;;;;;2.70;1.67;;;;;;;19.52;72.29;100840.23;1609576;87;20884;-58
2022/10/05 09:54:21;;;;;;;3.93;2.17;;;;;;;19.28;74.62;100842.84;1690202;84;20919;-57
2022/10/05 09:56:56;;;;;;;1.80;1.30;;;;;;;18.98;77.79;100848.14;1691414;84;21212;-58
2022/10/05 09:59:51;;;;;;;3.80;1.87;;;;;;;18.75;82.77;100845.37;1691399;84;20935;-58
2022/10/05 10:02:37;;;;;;;3.07;1.60;;;;;;;18.69;87.18;100851.81;1691277;84;22290;-58
2022/10/05 10:05:34;;;;;;;3.27;2.00;;;;;;;18.79;92.48;100845.22;1691369;84;20987;-58
2022/10/05 10:08:21;;;;;;;3.97;1.77;;;;;;;18.94;90.03;100840.34;1691226;84;20974;-58
2022/10/05 10:11:07;;;;;;;4.73;1.93;;;;;;;19.03;92.40;100839.02;1681090;84;21026;-58
2022/10/05 10:13:59;;;;;;;3.27;1.80;;;;;;;19.16;89.59;100836.17;1679190;84;20940;-58
2022/10/05 10:17:21;;;;;;;2.60;1.50;;;;;;;19.38;93.29;100838.30;1653937;84;20947;-58
2022/10/05 10:20:21;;;;;;;3.30;1.80;;;;;;;19.64;87.19;100835.27;1691244;84;21485;-58
2022/10/05 10:23:18;;;;;;;3.63;1.87;;;;;;;19.69;78.61;100831.93;1691396;84;20995;-58
2022/10/05 10:26:41;;;;;;;3.23;1.87;;;;;;;19.34;79.32;100839.27;1691260;84;21210;-58
2022/10/05 10:29:31;;;;;;;3.47;2.10;;;;;;;18.88;84.03;100839.41;1691288;84;20987;-58
2022/10/05 10:32:35;;;;;;;4.07;2.30;;;;;;;18.48;88.45;100837.73;1690631;84;21027;-59
2022/10/05 10:35:18;;;;;;;3.77;2.30;;;;;;;18.32;98.26;100836.50;1691207;84;20955;-58
2022/10/05 10:38:16;;;;;;;3.17;1.50;;;;;;;18.54;100.00;100832.91;1691367;84;20931;-58
2022/10/05 10:41:22;;;;;;;2.97;1.73;;;;;;;18.92;94.69;100833.97;1690635;84;21223;-59
2022/10/05 10:44:16;;;;;;;2.90;1.30;;;;;;;19.20;75.86;100829.40;1691110;83;21039;-66
2022/10/05 10:47:01;;;;;;;2.90;1.40;;;;;;;19.36;70.50;100827.97;1691332;84;20975;-59
2022/10/05 10:50:00;;;;;;;3.40;1.67;;;;;;;19.51;68.71;100818.77;1689837;84;21023;-65
2022/10/05 10:52:57;;;;;;;3.60;2.23;;;;;;;19.50;67.80;100824.58;1691228;84;21011;-59
2022/10/05 10:56:04;;;;;;;7.53;4.27;;;;;;;19.33;66.02;100828.41;1691287;84;21481;-59
2022/10/05 10:59:00;;;;;;;4.60;1.80;;;;;;;19.03;68.65;100825.80;1691307;84;21562;-60
2022/10/05 11:01:48;;;;;;;5.47;3.63;;;;;;;18.76;72.48;100821.91;1646277;86;21007;-63
2022/10/05 11:04:58;;;;;;;4.30;2.07;;;;;;;18.47;76.01;100822.41;1631598;86;21050;-59
2022/10/05 11:07:44;;;;;;;7.07;3.20;;;;;;;18.36;79.71;100818.39;1644820;86;21685;-60
2022/10/05 11:10:38;;;;;;;4.30;2.50;;;;;;;18.32;84.98;100817.22;1642735;85;21747;-59
2022/10/05 11:14:03;;;;;;;3.90;2.17;;;;;;;18.39;88.74;100822.72;1642593;87;21152;-59
2022/10/05 11:17:15;;;;;;;4.73;2.87;;;;;;;18.44;88.91;100823.37;1630933;87;21023;-60
2022/10/05 11:20:18;;;;;;;6.43;3.57;;;;;;;18.29;86.36;100821.09;1630907;88;21200;-59
2022/10/05 11:23:24;;;;;;;3.23;1.73;;;;;;;18.08;90.72;100824.19;1638831;85;21486;-65
2022/10/05 11:26:05;;;;;;;6.03;3.73;;;;;;;17.93;91.05;100829.28;1641356;87;23131;-59
2022/10/05 11:29:16;;;;;;;12.45;6.65;;;;;;;17.72;93.46;100829.13;1631317;87;21541;-59
2022/10/05 11:32:11;;;;;;;5.17;3.23;;;;;;;17.55;100.00;100828.06;1631016;88;21044;-59
2022/10/05 11:35:02;;;;;;;8.67;3.67;;;;;;;17.40;100.00;100824.94;1630402;88;21506;-67
2022/10/05 11:38:00;;;;;;;5.28;2.42;;;;;;;17.23;100.00;100833.85;1580413;88;20976;-60
2022/10/05 11:41:16;;;;;;;4.80;2.30;;;;;;;17.17;100.00;100829.45;1631015;88;22479;-59
2022/10/05 11:44:10;;;;;;;8.17;3.80;;;;;;;17.12;100.00;100827.45;1631218;87;21047;-59
2022/10/05 11:47:00;;;;;;;11.27;6.03;;;;;;;17.10;100.00;100827.36;1642246;87;21047;-60
2022/10/05 11:49:45;;;;;;;7.35;4.12;;;;;;;17.17;100.00;100824.98;1630871;88;21131;-59
2022/10/05 11:52:26;;;;;;;6.10;3.37;;;;;;;17.22;100.00;100823.83;1643117;87;20963;-58
2022/10/05 11:55:19;;;;;;;6.83;2.50;;;;;;;17.33;100.00;100826.81;1631115;87;22148;-63
2022/10/05 11:58:00;;;;;;;6.47;3.60;;;;;;;17.41;100.00;100828.66;1631062;87;20963;-59
2022/10/05 12:00:53;;;;;;;9.33;4.87;;;;;;;17.55;100.00;100836.48;1642980;87;21614;-59
2022/10/05 12:03:48;;;;;;;10.97;5.50;;;;;;;17.61;100.00;100831.14;1642797;87;21525;-59
2022/10/05 12:06:41;;;;;;;6.63;4.30;;;;;;;17.83;100.00;100829.48;1642755;87;21022;-59
2022/10/05 12:09:35;;;;;;;7.77;4.20;;;;;;;18.16;100.00;100819.41;1628368;87;21715;-58
2022/10/05 12:12:11;;;;;;;3.47;1.90;;;;;;;18.46;99.09;100816.05;1595274;88;21098;-58
2022/10/05 12:14:45;;;;;;;4.80;2.73;;;;;;;18.46;94.26;100808.12;1600708;88;21621;-62
2022/10/05 12:17:29;;;;;;;4.13;2.17;;;;;;;18.40;92.34;100819.56;1601277;89;21003;-59
2022/10/05 12:20:04;;;;;;;3.53;2.33;;;;;;;18.22;91.71;100824.31;1626038;88;21028;-59
2022/10/05 12:22:50;;;;;;;3.37;2.17;;;;;;;18.03;93.57;100817.41;1600984;89;21229;-57
2022/10/05 12:25:33;;;;;;;3.83;2.47;;;;;;;17.79;94.61;100825.66;1619661;88;20912;-57
2022/10/05 12:28:04;;;;;;;4.70;2.60;;;;;;;17.55;99.22;100842.56;1600554;89;20931;-58
2022/10/05 12:31:06;;;;;;;2.97;1.53;;;;;;;17.36;100.00;100852.73;1625755;88;20964;-57
2022/10/05 12:33:46;;;;;;;2.60;1.43;;;;;;;17.14;100.00;100851.75;1598342;89;21565;-58
2022/10/05 12:36:49;;;;;;;3.27;1.30;;;;;;;16.88;100.00;100851.88;1609845;88;21220;-58
2022/10/05 12:39:40;;;;;;;2.57;1.50;;;;;;;16.68;100.00;100861.16;1564553;90;21329;-58
2022/10/05 12:42:21;;;;;;;1.85;1.05;;;;;;;16.51;100.00;100859.48;1621577;87;20968;-59
2022/10/05 12:45:31;;;;;;;3.15;1.55;;;;;;;16.38;100.00;100862.16;1624201;87;21340;-58
2022/10/05 12:48:33;;;;;;;2.47;1.30;;;;;;;16.28;100.00;100862.06;1632138;87;20982;-59
2022/10/05 12:51:11;;;;;;;2.55;1.37;;;;;;;16.22;100.00;100860.27;1632432;86;21312;-59
2022/10/05 12:54:10;;;;;;;3.33;2.00;;;;;;;16.26;100.00;100859.35;1639707;86;21077;-59
2022/10/05 12:56:58;;;;;;;3.40;1.70;;;;;;;16.34;100.00;100857.01;1658708;86;21014;-60
2022/10/05 12:59:40;;;;;;;3.50;1.63;;;;;;;16.38;100.00;100854.27;1653898;86;20920;-59